sensor_id;sensor_type;location;lat;lon;timestamp;temperature;humidity
4487;DHT22;2256;48.740;9.106;2024-03-02T00:01:31;5.90;99.90
4487;DHT22;2256;48.740;9.106;2024-03-02T00:03:58;5.90;99.90
4487;DHT22;2256;48.740;9.106;2024-03-02T00:06:26;5.80;99.90
4487;DHT22;2256;48.740;9.106;2024-03-02T00:08:57;5.80;99.90
4487;DHT22;2256;48.740;9.106;2024-03-02T00:11:24;5.90;99.90
4487;DHT22;2256;48.740;9.106;2024-03-02T00:13:53;6.00;99.90
4487;DHT22;2256;48.740;9.106;2024-03-02T00:16:20;6.00;99.90
4487;DHT22;2256;48.740;9.106;2024-03-02T00:18:46;6.00;99.90
4487;DHT22;2256;48.740;9.106;2024-03-02T00:21:13;6.00;99.90
4487;DHT22;2256;48.740;9.106;2024-03-02T00:23:43;5.90;99.90
4487;DHT22;2256;48.740;9.106;2024-03-02T00:26:11;6.00;99.90
4487;DHT22;2256;48.740;9.106;2024-03-02T00:28:39;6.00;99.90
4487;DHT22;2256;48.740;9.106;2024-03-02T00:31:09;6.00;99.90
4487;DHT22;2256;48.740;9.106;2024-03-02T00:33:40;6.00;99.90
4487;DHT22;2256;48.740;9.106;2024-03-02T00:36:08;6.00;99.90
4487;DHT22;2256;48.740;9.106;2024-03-02T00:38:44;6.00;99.90
4487;DHT22;2256;48.740;9.106;2024-03-02T00:41:18;6.00;99.90
4487;DHT22;2256;48.740;9.106;2024-03-02T00:43:56;6.00;99.90
4487;DHT22;2256;48.740;9.106;2024-03-02T00:46:24;6.10;99.90
4487;DHT22;2256;48.740;9.106;2024-03-02T00:48:54;6.10;99.90
4487;DHT22;2256;48.740;9.106;2024-03-02T00:51:22;6.20;99.90
4487;DHT22;2256;48.740;9.106;2024-03-02T00:53:51;6.20;99.90
4487;DHT22;2256;48.740;9.106;2024-03-02T00:56:18;6.20;99.90
4487;DHT22;2256;48.740;9.106;2024-03-02T00:58:45;6.10;99.90
4487;DHT22;2256;48.740;9.106;2024-03-02T01:01:12;6.10;99.90
4487;DHT22;2256;48.740;9.106;2024-03-02T01:03:39;6.00;99.90
4487;DHT22;2256;48.740;9.106;2024-03-02T01:06:07;6.00;99.90
4487;DHT22;2256;48.740;9.106;2024-03-02T01:08:34;6.00;99.90
4487;DHT22;2256;48.740;9.106;2024-03-02T01:11:03;6.00;99.90
4487;DHT22;2256;48.740;9.106;2024-03-02T01:13:30;6.00;99.90
4487;DHT22;2256;48.740;9.106;2024-03-02T01:15:57;6.00;99.90
4487;DHT22;2256;48.740;9.106;2024-03-02T01:18:24;6.00;99.90
4487;DHT22;2256;48.740;9.106;2024-03-02T01:20:51;5.90;99.90
4487;DHT22;2256;48.740;9.106;2024-03-02T01:23:20;6.00;99.90
4487;DHT22;2256;48.740;9.106;2024-03-02T01:25:47;5.90;99.90
4487;DHT22;2256;48.740;9.106;2024-03-02T01:28:15;5.90;99.90
4487;DHT22;2256;48.740;9.106;2024-03-02T01:30:42;5.90;99.90
4487;DHT22;2256;48.740;9.106;2024-03-02T01:33:09;5.90;99.90
4487;DHT22;2256;48.740;9.106;2024-03-02T01:35:36;5.80;99.90
4487;DHT22;2256;48.740;9.106;2024-03-02T01:38:03;5.90;99.90
4487;DHT22;2256;48.740;9.106;2024-03-02T01:40:31;5.80;99.90
4487;DHT22;2256;48.740;9.106;2024-03-02T01:42:58;5.70;99.90
4487;DHT22;2256;48.740;9.106;2024-03-02T01:45:26;5.70;99.90
4487;DHT22;2256;48.740;9.106;2024-03-02T01:47:53;5.70;99.90
4487;DHT22;2256;48.740;9.106;2024-03-02T01:50:27;5.60;99.90
4487;DHT22;2256;48.740;9.106;2024-03-02T01:52:54;5.50;99.90
4487;DHT22;2256;48.740;9.106;2024-03-02T01:55:21;5.50;99.90
4487;DHT22;2256;48.740;9.106;2024-03-02T01:57:48;5.40;99.90
4487;DHT22;2256;48.740;9.106;2024-03-02T02:00:16;5.40;99.90
4487;DHT22;2256;48.740;9.106;2024-03-02T02:02:45;5.40;99.90
4487;DHT22;2256;48.740;9.106;2024-03-02T02:05:12;5.30;99.90
4487;DHT22;2256;48.740;9.106;2024-03-02T02:07:40;5.40;99.90
4487;DHT22;2256;48.740;9.106;2024-03-02T02:10:07;5.30;99.90
4487;DHT22;2256;48.740;9.106;2024-03-02T02:12:35;5.20;99.90
4487;DHT22;2256;48.740;9.106;2024-03-02T02:15:02;5.10;99.90
4487;DHT22;2256;48.740;9.106;2024-03-02T02:17:29;5.10;99.90
4487;DHT22;2256;48.740;9.106;2024-03-02T02:19:57;5.20;99.90
4487;DHT22;2256;48.740;9.106;2024-03-02T02:22:25;4.90;99.90
4487;DHT22;2256;48.740;9.106;2024-03-02T02:24:52;5.00;99.90
4487;DHT22;2256;48.740;9.106;2024-03-02T02:27:19;4.90;99.90
4487;DHT22;2256;48.740;9.106;2024-03-02T02:29:45;4.90;99.90
4487;DHT22;2256;48.740;9.106;2024-03-02T02:32:12;4.80;99.90
4487;DHT22;2256;48.740;9.106;2024-03-02T02:34:39;4.80;99.90
4487;DHT22;2256;48.740;9.106;2024-03-02T02:37:06;4.70;99.90
4487;DHT22;2256;48.740;9.106;2024-03-02T02:39:34;4.60;99.90
4487;DHT22;2256;48.740;9.106;2024-03-02T02:42:01;4.60;99.90
4487;DHT22;2256;48.740;9.106;2024-03-02T02:44:28;4.70;99.90
4487;DHT22;2256;48.740;9.106;2024-03-02T02:46:55;4.70;99.90
4487;DHT22;2256;48.740;9.106;2024-03-02T02:49:21;4.70;99.90
4487;DHT22;2256;48.740;9.106;2024-03-02T02:51:48;4.70;99.90
4487;DHT22;2256;48.740;9.106;2024-03-02T02:54:15;4.70;99.90
4487;DHT22;2256;48.740;9.106;2024-03-02T02:56:43;4.70;99.90
4487;DHT22;2256;48.740;9.106;2024-03-02T02:59:10;4.60;99.90
4487;DHT22;2256;48.740;9.106;2024-03-02T03:01:37;4.50;99.90
4487;DHT22;2256;48.740;9.106;2024-03-02T03:04:04;4.50;99.90
4487;DHT22;2256;48.740;9.106;2024-03-02T03:06:31;4.60;99.90
4487;DHT22;2256;48.740;9.106;2024-03-02T03:08:57;4.60;99.90
4487;DHT22;2256;48.740;9.106;2024-03-02T03:11:24;4.60;99.90
4487;DHT22;2256;48.740;9.106;2024-03-02T03:13:53;4.60;99.90
4487;DHT22;2256;48.740;9.106;2024-03-02T03:16:20;4.50;99.90
4487;DHT22;2256;48.740;9.106;2024-03-02T03:18:47;4.50;99.90
4487;DHT22;2256;48.740;9.106;2024-03-02T03:21:15;4.40;99.90
4487;DHT22;2256;48.740;9.106;2024-03-02T03:23:42;4.50;99.90
4487;DHT22;2256;48.740;9.106;2024-03-02T03:26:09;4.40;99.90
4487;DHT22;2256;48.740;9.106;2024-03-02T03:28:35;4.40;99.90
4487;DHT22;2256;48.740;9.106;2024-03-02T03:31:04;4.40;99.90
4487;DHT22;2256;48.740;9.106;2024-03-02T03:33:31;4.40;99.90
4487;DHT22;2256;48.740;9.106;2024-03-02T03:35:57;4.50;99.90
4487;DHT22;2256;48.740;9.106;2024-03-02T03:38:24;4.60;99.90
4487;DHT22;2256;48.740;9.106;2024-03-02T03:40:51;4.50;99.90
4487;DHT22;2256;48.740;9.106;2024-03-02T03:43:17;4.40;99.90
4487;DHT22;2256;48.740;9.106;2024-03-02T03:45:44;4.40;99.90
4487;DHT22;2256;48.740;9.106;2024-03-02T03:48:12;4.40;99.90
4487;DHT22;2256;48.740;9.106;2024-03-02T03:50:39;4.40;99.90
4487;DHT22;2256;48.740;9.106;2024-03-02T03:53:06;4.30;99.90
4487;DHT22;2256;48.740;9.106;2024-03-02T03:55:32;4.30;99.90
4487;DHT22;2256;48.740;9.106;2024-03-02T03:57:59;4.30;99.90
4487;DHT22;2256;48.740;9.106;2024-03-02T04:00:26;4.30;99.90
4487;DHT22;2256;48.740;9.106;2024-03-02T04:02:53;4.30;99.90
4487;DHT22;2256;48.740;9.106;2024-03-02T04:05:21;4.20;99.90
4487;DHT22;2256;48.740;9.106;2024-03-02T04:07:47;4.20;99.90
4487;DHT22;2256;48.740;9.106;2024-03-02T04:10:14;4.20;99.90
4487;DHT22;2256;48.740;9.106;2024-03-02T04:12:42;4.20;99.90
4487;DHT22;2256;48.740;9.106;2024-03-02T04:15:09;4.20;99.90
4487;DHT22;2256;48.740;9.106;2024-03-02T04:17:36;4.10;99.90
4487;DHT22;2256;48.740;9.106;2024-03-02T04:20:03;4.00;99.90
4487;DHT22;2256;48.740;9.106;2024-03-02T04:22:34;3.90;99.90
4487;DHT22;2256;48.740;9.106;2024-03-02T04:25:01;3.90;99.90
4487;DHT22;2256;48.740;9.106;2024-03-02T04:27:30;3.90;99.90
4487;DHT22;2256;48.740;9.106;2024-03-02T04:29:57;3.90;99.90
4487;DHT22;2256;48.740;9.106;2024-03-02T04:32:25;3.90;99.90
4487;DHT22;2256;48.740;9.106;2024-03-02T04:34:52;4.00;99.90
4487;DHT22;2256;48.740;9.106;2024-03-02T04:37:19;4.20;99.90
4487;DHT22;2256;48.740;9.106;2024-03-02T04:39:47;4.10;99.90
4487;DHT22;2256;48.740;9.106;2024-03-02T04:42:14;4.10;99.90
4487;DHT22;2256;48.740;9.106;2024-03-02T04:44:40;4.00;99.90
4487;DHT22;2256;48.740;9.106;2024-03-02T04:47:07;3.90;99.90
4487;DHT22;2256;48.740;9.106;2024-03-02T04:49:34;3.80;99.90
4487;DHT22;2256;48.740;9.106;2024-03-02T04:52:00;3.80;99.90
4487;DHT22;2256;48.740;9.106;2024-03-02T04:54:27;3.80;99.90
4487;DHT22;2256;48.740;9.106;2024-03-02T04:56:55;3.80;99.90
4487;DHT22;2256;48.740;9.106;2024-03-02T04:59:22;4.00;99.90
4487;DHT22;2256;48.740;9.106;2024-03-02T05:01:49;4.00;99.90
4487;DHT22;2256;48.740;9.106;2024-03-02T05:04:16;4.00;99.90
4487;DHT22;2256;48.740;9.106;2024-03-02T05:06:43;4.00;99.90
4487;DHT22;2256;48.740;9.106;2024-03-02T05:09:16;4.00;99.90
4487;DHT22;2256;48.740;9.106;2024-03-02T05:11:42;4.00;99.90
4487;DHT22;2256;48.740;9.106;2024-03-02T05:14:36;4.10;99.90
4487;DHT22;2256;48.740;9.106;2024-03-02T05:17:03;3.90;99.90
4487;DHT22;2256;48.740;9.106;2024-03-02T05:19:30;4.00;99.90
4487;DHT22;2256;48.740;9.106;2024-03-02T05:21:57;3.90;99.90
4487;DHT22;2256;48.740;9.106;2024-03-02T05:24:23;3.90;99.90
4487;DHT22;2256;48.740;9.106;2024-03-02T05:26:52;3.80;99.90
4487;DHT22;2256;48.740;9.106;2024-03-02T05:29:19;3.80;99.90
4487;DHT22;2256;48.740;9.106;2024-03-02T05:31:47;3.80;99.90
4487;DHT22;2256;48.740;9.106;2024-03-02T05:34:14;3.70;99.90
4487;DHT22;2256;48.740;9.106;2024-03-02T05:36:41;3.70;99.90
4487;DHT22;2256;48.740;9.106;2024-03-02T05:39:07;3.60;99.90
4487;DHT22;2256;48.740;9.106;2024-03-02T05:41:36;3.60;99.90
4487;DHT22;2256;48.740;9.106;2024-03-02T05:44:04;3.60;99.90
4487;DHT22;2256;48.740;9.106;2024-03-02T05:46:30;3.70;99.90
4487;DHT22;2256;48.740;9.106;2024-03-02T05:48:59;3.70;99.90
4487;DHT22;2256;48.740;9.106;2024-03-02T05:51:25;3.70;99.90
4487;DHT22;2256;48.740;9.106;2024-03-02T05:53:52;3.70;99.90
4487;DHT22;2256;48.740;9.106;2024-03-02T05:56:19;3.70;99.90
4487;DHT22;2256;48.740;9.106;2024-03-02T05:58:46;3.70;99.90
4487;DHT22;2256;48.740;9.106;2024-03-02T06:01:23;3.70;99.90
4487;DHT22;2256;48.740;9.106;2024-03-02T06:03:54;3.60;99.90
4487;DHT22;2256;48.740;9.106;2024-03-02T06:06:22;3.70;99.90
4487;DHT22;2256;48.740;9.106;2024-03-02T06:08:49;3.80;99.90
4487;DHT22;2256;48.740;9.106;2024-03-02T06:11:16;3.80;99.90
4487;DHT22;2256;48.740;9.106;2024-03-02T06:13:43;3.80;99.90
4487;DHT22;2256;48.740;9.106;2024-03-02T06:16:09;3.90;99.90
4487;DHT22;2256;48.740;9.106;2024-03-02T06:18:36;3.90;99.90
4487;DHT22;2256;48.740;9.106;2024-03-02T06:21:04;3.90;99.90
4487;DHT22;2256;48.740;9.106;2024-03-02T06:23:32;3.90;99.90
4487;DHT22;2256;48.740;9.106;2024-03-02T06:25:58;4.00;99.90
4487;DHT22;2256;48.740;9.106;2024-03-02T06:28:25;4.10;99.90
4487;DHT22;2256;48.740;9.106;2024-03-02T06:30:52;4.20;99.90
4487;DHT22;2256;48.740;9.106;2024-03-02T06:33:19;4.30;99.90
4487;DHT22;2256;48.740;9.106;2024-03-02T06:35:46;4.40;99.90
4487;DHT22;2256;48.740;9.106;2024-03-02T06:38:14;4.50;99.90
4487;DHT22;2256;48.740;9.106;2024-03-02T06:40:42;4.60;99.90
4487;DHT22;2256;48.740;9.106;2024-03-02T06:43:09;4.70;99.90
4487;DHT22;2256;48.740;9.106;2024-03-02T06:45:36;4.80;99.90
4487;DHT22;2256;48.740;9.106;2024-03-02T06:48:03;4.90;99.90
4487;DHT22;2256;48.740;9.106;2024-03-02T06:50:30;4.90;99.90
4487;DHT22;2256;48.740;9.106;2024-03-02T06:52:57;5.00;99.90
4487;DHT22;2256;48.740;9.106;2024-03-02T06:55:24;5.10;99.90
4487;DHT22;2256;48.740;9.106;2024-03-02T06:57:52;5.10;99.90
4487;DHT22;2256;48.740;9.106;2024-03-02T07:00:20;5.30;99.90
4487;DHT22;2256;48.740;9.106;2024-03-02T07:02:46;5.40;99.90
4487;DHT22;2256;48.740;9.106;2024-03-02T07:05:13;5.50;99.90
4487;DHT22;2256;48.740;9.106;2024-03-02T07:07:40;5.70;99.90
4487;DHT22;2256;48.740;9.106;2024-03-02T07:10:07;5.80;99.90
4487;DHT22;2256;48.740;9.106;2024-03-02T07:12:34;6.10;99.90
4487;DHT22;2256;48.740;9.106;2024-03-02T07:15:03;6.30;99.90
4487;DHT22;2256;48.740;9.106;2024-03-02T07:17:55;6.50;99.90
4487;DHT22;2256;48.740;9.106;2024-03-02T07:20:22;6.80;99.90
4487;DHT22;2256;48.740;9.106;2024-03-02T07:22:48;7.00;99.90
4487;DHT22;2256;48.740;9.106;2024-03-02T07:25:15;7.30;99.90
4487;DHT22;2256;48.740;9.106;2024-03-02T07:27:42;7.50;99.90
4487;DHT22;2256;48.740;9.106;2024-03-02T07:30:14;8.00;99.90
4487;DHT22;2256;48.740;9.106;2024-03-02T07:32:42;8.50;99.90
4487;DHT22;2256;48.740;9.106;2024-03-02T07:35:11;8.40;99.90
4487;DHT22;2256;48.740;9.106;2024-03-02T07:37:38;8.10;99.90
4487;DHT22;2256;48.740;9.106;2024-03-02T07:40:06;7.80;99.90
4487;DHT22;2256;48.740;9.106;2024-03-02T07:42:37;7.70;99.90
4487;DHT22;2256;48.740;9.106;2024-03-02T07:45:04;7.60;99.90
4487;DHT22;2256;48.740;9.106;2024-03-02T07:47:33;7.50;99.90
4487;DHT22;2256;48.740;9.106;2024-03-02T07:50:00;7.50;99.90
4487;DHT22;2256;48.740;9.106;2024-03-02T07:52:27;7.40;99.90
4487;DHT22;2256;48.740;9.106;2024-03-02T07:54:53;7.30;99.90
4487;DHT22;2256;48.740;9.106;2024-03-02T07:57:20;7.30;99.90
4487;DHT22;2256;48.740;9.106;2024-03-02T07:59:47;7.30;99.90
4487;DHT22;2256;48.740;9.106;2024-03-02T08:02:14;7.20;99.90
4487;DHT22;2256;48.740;9.106;2024-03-02T08:04:42;7.20;99.90
4487;DHT22;2256;48.740;9.106;2024-03-02T08:07:11;7.20;99.90
4487;DHT22;2256;48.740;9.106;2024-03-02T08:09:41;7.20;99.90
4487;DHT22;2256;48.740;9.106;2024-03-02T08:12:08;7.40;99.90
4487;DHT22;2256;48.740;9.106;2024-03-02T08:14:35;7.60;99.90
4487;DHT22;2256;48.740;9.106;2024-03-02T08:17:02;7.70;99.90
4487;DHT22;2256;48.740;9.106;2024-03-02T08:19:35;8.20;99.90
4487;DHT22;2256;48.740;9.106;2024-03-02T08:22:04;8.80;99.90
4487;DHT22;2256;48.740;9.106;2024-03-02T08:24:31;9.20;99.90
4487;DHT22;2256;48.740;9.106;2024-03-02T08:26:58;9.50;99.90
4487;DHT22;2256;48.740;9.106;2024-03-02T08:29:25;9.60;99.90
4487;DHT22;2256;48.740;9.106;2024-03-02T08:31:52;9.90;99.90
4487;DHT22;2256;48.740;9.106;2024-03-02T08:34:19;10.20;99.90
4487;DHT22;2256;48.740;9.106;2024-03-02T08:36:46;10.60;99.90
4487;DHT22;2256;48.740;9.106;2024-03-02T08:39:14;10.80;99.90
4487;DHT22;2256;48.740;9.106;2024-03-02T08:41:41;11.10;99.90
4487;DHT22;2256;48.740;9.106;2024-03-02T08:44:09;11.30;99.90
4487;DHT22;2256;48.740;9.106;2024-03-02T08:46:36;11.70;99.90
4487;DHT22;2256;48.740;9.106;2024-03-02T08:49:03;12.00;99.90
4487;DHT22;2256;48.740;9.106;2024-03-02T08:51:30;12.00;99.90
4487;DHT22;2256;48.740;9.106;2024-03-02T08:53:57;12.50;99.90
4487;DHT22;2256;48.740;9.106;2024-03-02T08:56:25;13.20;99.90
4487;DHT22;2256;48.740;9.106;2024-03-02T08:58:52;14.50;99.90
4487;DHT22;2256;48.740;9.106;2024-03-02T09:01:19;15.70;99.90
4487;DHT22;2256;48.740;9.106;2024-03-02T09:03:46;16.90;99.40
4487;DHT22;2256;48.740;9.106;2024-03-02T09:06:15;17.60;97.60
4487;DHT22;2256;48.740;9.106;2024-03-02T09:08:43;18.30;96.90
4487;DHT22;2256;48.740;9.106;2024-03-02T09:11:10;19.30;95.50
4487;DHT22;2256;48.740;9.106;2024-03-02T09:13:38;20.20;94.30
4487;DHT22;2256;48.740;9.106;2024-03-02T09:16:05;20.60;93.30
4487;DHT22;2256;48.740;9.106;2024-03-02T09:18:33;20.40;92.80
4487;DHT22;2256;48.740;9.106;2024-03-02T09:20:59;20.60;92.50
4487;DHT22;2256;48.740;9.106;2024-03-02T09:23:26;20.70;92.30
4487;DHT22;2256;48.740;9.106;2024-03-02T09:25:53;20.60;92.20
4487;DHT22;2256;48.740;9.106;2024-03-02T09:28:20;20.80;91.80
4487;DHT22;2256;48.740;9.106;2024-03-02T09:30:48;20.60;92.00
4487;DHT22;2256;48.740;9.106;2024-03-02T09:33:15;20.40;92.10
4487;DHT22;2256;48.740;9.106;2024-03-02T09:35:42;20.70;92.70
4487;DHT22;2256;48.740;9.106;2024-03-02T09:38:08;21.00;91.20
4487;DHT22;2256;48.740;9.106;2024-03-02T09:40:36;21.20;90.70
4487;DHT22;2256;48.740;9.106;2024-03-02T09:43:03;21.30;90.50
4487;DHT22;2256;48.740;9.106;2024-03-02T09:45:30;21.30;89.60
4487;DHT22;2256;48.740;9.106;2024-03-02T09:47:58;20.80;90.20
4487;DHT22;2256;48.740;9.106;2024-03-02T09:50:26;20.80;90.30
4487;DHT22;2256;48.740;9.106;2024-03-02T09:52:52;20.70;90.10
4487;DHT22;2256;48.740;9.106;2024-03-02T09:55:20;20.50;90.20
4487;DHT22;2256;48.740;9.106;2024-03-02T09:57:47;20.00;90.70
4487;DHT22;2256;48.740;9.106;2024-03-02T10:00:15;19.70;90.50
4487;DHT22;2256;48.740;9.106;2024-03-02T10:02:42;19.00;90.80
4487;DHT22;2256;48.740;9.106;2024-03-02T10:05:11;18.30;91.40
4487;DHT22;2256;48.740;9.106;2024-03-02T10:07:38;17.60;91.60
4487;DHT22;2256;48.740;9.106;2024-03-02T10:10:15;17.10;92.10
4487;DHT22;2256;48.740;9.106;2024-03-02T10:12:42;16.80;92.50
4487;DHT22;2256;48.740;9.106;2024-03-02T10:15:09;16.40;93.00
4487;DHT22;2256;48.740;9.106;2024-03-02T10:17:37;15.90;94.00
4487;DHT22;2256;48.740;9.106;2024-03-02T10:20:26;15.60;94.10
4487;DHT22;2256;48.740;9.106;2024-03-02T10:22:55;15.00;94.80
4487;DHT22;2256;48.740;9.106;2024-03-02T10:25:29;14.60;95.00
4487;DHT22;2256;48.740;9.106;2024-03-02T10:27:57;14.30;95.60
4487;DHT22;2256;48.740;9.106;2024-03-02T10:30:25;14.00;95.20
4487;DHT22;2256;48.740;9.106;2024-03-02T10:32:53;13.70;95.60
4487;DHT22;2256;48.740;9.106;2024-03-02T10:35:20;13.40;95.60
4487;DHT22;2256;48.740;9.106;2024-03-02T10:37:49;13.40;96.00
4487;DHT22;2256;48.740;9.106;2024-03-02T10:40:16;13.40;95.90
4487;DHT22;2256;48.740;9.106;2024-03-02T10:42:44;13.50;95.50
4487;DHT22;2256;48.740;9.106;2024-03-02T10:45:12;13.80;95.80
4487;DHT22;2256;48.740;9.106;2024-03-02T10:47:39;13.90;95.90
4487;DHT22;2256;48.740;9.106;2024-03-02T10:50:07;14.10;95.60
4487;DHT22;2256;48.740;9.106;2024-03-02T10:52:34;13.80;95.70
4487;DHT22;2256;48.740;9.106;2024-03-02T10:55:03;13.70;95.70
4487;DHT22;2256;48.740;9.106;2024-03-02T10:57:41;13.70;95.50
4487;DHT22;2256;48.740;9.106;2024-03-02T11:00:12;13.90;96.10
4487;DHT22;2256;48.740;9.106;2024-03-02T11:02:44;14.10;96.30
4487;DHT22;2256;48.740;9.106;2024-03-02T11:05:18;14.30;95.90
4487;DHT22;2256;48.740;9.106;2024-03-02T11:07:48;14.40;95.90
4487;DHT22;2256;48.740;9.106;2024-03-02T11:10:17;14.30;96.40
4487;DHT22;2256;48.740;9.106;2024-03-02T11:12:48;14.40;96.50
4487;DHT22;2256;48.740;9.106;2024-03-02T11:15:18;14.40;96.10
4487;DHT22;2256;48.740;9.106;2024-03-02T11:17:46;14.10;96.20
4487;DHT22;2256;48.740;9.106;2024-03-02T11:20:14;13.90;96.40
4487;DHT22;2256;48.740;9.106;2024-03-02T11:22:44;13.90;97.20
4487;DHT22;2256;48.740;9.106;2024-03-02T11:25:24;14.20;97.60
4487;DHT22;2256;48.740;9.106;2024-03-02T11:28:02;14.30;96.80
4487;DHT22;2256;48.740;9.106;2024-03-02T11:30:51;14.60;96.70
4487;DHT22;2256;48.740;9.106;2024-03-02T11:33:26;14.50;96.20
4487;DHT22;2256;48.740;9.106;2024-03-02T11:35:57;14.30;96.20
4487;DHT22;2256;48.740;9.106;2024-03-02T11:38:31;14.20;96.40
4487;DHT22;2256;48.740;9.106;2024-03-02T11:41:01;14.10;96.90
4487;DHT22;2256;48.740;9.106;2024-03-02T11:43:28;14.20;96.90
4487;DHT22;2256;48.740;9.106;2024-03-02T11:45:59;14.30;96.70
4487;DHT22;2256;48.740;9.106;2024-03-02T11:48:29;14.20;96.40
4487;DHT22;2256;48.740;9.106;2024-03-02T11:50:58;14.00;95.90
4487;DHT22;2256;48.740;9.106;2024-03-02T11:53:26;13.80;96.20
4487;DHT22;2256;48.740;9.106;2024-03-02T11:55:55;13.60;96.50
4487;DHT22;2256;48.740;9.106;2024-03-02T11:58:23;13.50;96.90
4487;DHT22;2256;48.740;9.106;2024-03-02T12:00:52;13.80;96.70
4487;DHT22;2256;48.740;9.106;2024-03-02T12:03:21;13.80;96.90
4487;DHT22;2256;48.740;9.106;2024-03-02T12:05:49;13.90;96.70
4487;DHT22;2256;48.740;9.106;2024-03-02T12:08:16;14.30;96.90
4487;DHT22;2256;48.740;9.106;2024-03-02T12:10:43;14.40;96.20
4487;DHT22;2256;48.740;9.106;2024-03-02T12:13:23;14.30;95.90
4487;DHT22;2256;48.740;9.106;2024-03-02T12:15:53;14.30;95.70
4487;DHT22;2256;48.740;9.106;2024-03-02T12:18:20;14.20;96.00
4487;DHT22;2256;48.740;9.106;2024-03-02T12:20:48;14.20;95.80
4487;DHT22;2256;48.740;9.106;2024-03-02T12:23:16;14.20;95.90
4487;DHT22;2256;48.740;9.106;2024-03-02T12:25:42;14.30;95.80
4487;DHT22;2256;48.740;9.106;2024-03-02T12:28:10;14.50;95.60
4487;DHT22;2256;48.740;9.106;2024-03-02T12:30:38;14.60;95.50
4487;DHT22;2256;48.740;9.106;2024-03-02T12:33:05;14.70;95.50
4487;DHT22;2256;48.740;9.106;2024-03-02T12:35:32;14.50;95.70
4487;DHT22;2256;48.740;9.106;2024-03-02T12:37:58;14.70;96.00
4487;DHT22;2256;48.740;9.106;2024-03-02T12:40:25;14.80;95.70
4487;DHT22;2256;48.740;9.106;2024-03-02T12:42:52;14.80;96.40
4487;DHT22;2256;48.740;9.106;2024-03-02T12:45:20;14.90;96.20
4487;DHT22;2256;48.740;9.106;2024-03-02T12:47:50;15.00;96.20
4487;DHT22;2256;48.740;9.106;2024-03-02T12:50:18;15.00;96.00
4487;DHT22;2256;48.740;9.106;2024-03-02T12:52:51;15.10;95.70
4487;DHT22;2256;48.740;9.106;2024-03-02T12:55:19;15.10;95.20
4487;DHT22;2256;48.740;9.106;2024-03-02T12:57:46;15.00;95.30
4487;DHT22;2256;48.740;9.106;2024-03-02T13:00:13;15.00;95.50
4487;DHT22;2256;48.740;9.106;2024-03-02T13:02:41;15.20;95.70
4487;DHT22;2256;48.740;9.106;2024-03-02T13:05:09;15.30;95.30
4487;DHT22;2256;48.740;9.106;2024-03-02T13:07:37;15.10;94.70
4487;DHT22;2256;48.740;9.106;2024-03-02T13:10:04;15.10;95.20
4487;DHT22;2256;48.740;9.106;2024-03-02T13:12:31;15.00;95.00
4487;DHT22;2256;48.740;9.106;2024-03-02T13:14:58;15.00;95.50
4487;DHT22;2256;48.740;9.106;2024-03-02T13:17:25;15.00;95.20
4487;DHT22;2256;48.740;9.106;2024-03-02T13:19:53;14.90;94.90
4487;DHT22;2256;48.740;9.106;2024-03-02T13:22:21;14.80;95.00
4487;DHT22;2256;48.740;9.106;2024-03-02T13:24:49;14.70;95.50
4487;DHT22;2256;48.740;9.106;2024-03-02T13:27:16;15.00;94.90
4487;DHT22;2256;48.740;9.106;2024-03-02T13:29:45;15.00;95.10
4487;DHT22;2256;48.740;9.106;2024-03-02T13:32:11;14.90;94.50
4487;DHT22;2256;48.740;9.106;2024-03-02T13:34:40;14.90;94.90
4487;DHT22;2256;48.740;9.106;2024-03-02T13:37:07;14.90;94.60
4487;DHT22;2256;48.740;9.106;2024-03-02T13:39:36;14.90;94.80
4487;DHT22;2256;48.740;9.106;2024-03-02T13:42:07;14.90;95.00
4487;DHT22;2256;48.740;9.106;2024-03-02T13:44:34;14.90;95.10
4487;DHT22;2256;48.740;9.106;2024-03-02T13:47:01;15.00;94.90
4487;DHT22;2256;48.740;9.106;2024-03-02T13:49:28;15.20;94.70
4487;DHT22;2256;48.740;9.106;2024-03-02T13:51:59;15.10;94.40
4487;DHT22;2256;48.740;9.106;2024-03-02T13:54:28;15.00;94.70
4487;DHT22;2256;48.740;9.106;2024-03-02T13:56:57;14.90;94.30
4487;DHT22;2256;48.740;9.106;2024-03-02T13:59:25;14.80;94.80
4487;DHT22;2256;48.740;9.106;2024-03-02T14:01:53;14.80;94.50
4487;DHT22;2256;48.740;9.106;2024-03-02T14:04:20;14.90;94.60
4487;DHT22;2256;48.740;9.106;2024-03-02T14:06:46;14.80;94.40
4487;DHT22;2256;48.740;9.106;2024-03-02T14:09:13;14.90;94.40
4487;DHT22;2256;48.740;9.106;2024-03-02T14:11:40;15.00;94.30
4487;DHT22;2256;48.740;9.106;2024-03-02T14:14:08;14.80;94.30
4487;DHT22;2256;48.740;9.106;2024-03-02T14:16:35;14.60;94.30
4487;DHT22;2256;48.740;9.106;2024-03-02T14:19:02;14.60;94.40
4487;DHT22;2256;48.740;9.106;2024-03-02T14:21:30;14.70;94.60
4487;DHT22;2256;48.740;9.106;2024-03-02T14:23:57;14.70;94.30
4487;DHT22;2256;48.740;9.106;2024-03-02T14:26:24;14.70;94.00
4487;DHT22;2256;48.740;9.106;2024-03-02T14:28:51;14.80;94.20
4487;DHT22;2256;48.740;9.106;2024-03-02T14:31:19;14.80;94.30
4487;DHT22;2256;48.740;9.106;2024-03-02T14:33:46;14.90;93.90
4487;DHT22;2256;48.740;9.106;2024-03-02T14:36:12;14.90;93.90
4487;DHT22;2256;48.740;9.106;2024-03-02T14:38:39;14.90;93.10
4487;DHT22;2256;48.740;9.106;2024-03-02T14:41:06;14.80;93.40
4487;DHT22;2256;48.740;9.106;2024-03-02T14:43:33;14.90;93.10
4487;DHT22;2256;48.740;9.106;2024-03-02T14:46:00;15.00;93.30
4487;DHT22;2256;48.740;9.106;2024-03-02T14:48:28;14.90;93.30
4487;DHT22;2256;48.740;9.106;2024-03-02T14:50:55;14.90;93.30
4487;DHT22;2256;48.740;9.106;2024-03-02T14:53:22;14.90;93.40
4487;DHT22;2256;48.740;9.106;2024-03-02T14:55:49;15.00;93.30
4487;DHT22;2256;48.740;9.106;2024-03-02T14:58:16;14.90;93.30
4487;DHT22;2256;48.740;9.106;2024-03-02T15:00:42;14.90;93.10
4487;DHT22;2256;48.740;9.106;2024-03-02T15:03:09;15.00;92.60
4487;DHT22;2256;48.740;9.106;2024-03-02T15:05:38;14.90;92.70
4487;DHT22;2256;48.740;9.106;2024-03-02T15:08:06;14.90;92.70
4487;DHT22;2256;48.740;9.106;2024-03-02T15:10:33;15.10;92.20
4487;DHT22;2256;48.740;9.106;2024-03-02T15:13:00;15.20;92.20
4487;DHT22;2256;48.740;9.106;2024-03-02T15:15:27;15.10;91.90
4487;DHT22;2256;48.740;9.106;2024-03-02T15:17:54;14.90;91.90
4487;DHT22;2256;48.740;9.106;2024-03-02T15:20:20;14.60;92.20
4487;DHT22;2256;48.740;9.106;2024-03-02T15:22:48;14.50;92.30
4487;DHT22;2256;48.740;9.106;2024-03-02T15:25:15;14.50;92.30
4487;DHT22;2256;48.740;9.106;2024-03-02T15:27:42;14.30;92.80
4487;DHT22;2256;48.740;9.106;2024-03-02T15:30:09;14.20;92.70
4487;DHT22;2256;48.740;9.106;2024-03-02T15:32:36;14.10;92.10
4487;DHT22;2256;48.740;9.106;2024-03-02T15:35:04;13.90;91.70
4487;DHT22;2256;48.740;9.106;2024-03-02T15:37:31;13.70;91.70
4487;DHT22;2256;48.740;9.106;2024-03-02T15:40:00;13.60;92.00
4487;DHT22;2256;48.740;9.106;2024-03-02T15:42:31;13.50;91.80
4487;DHT22;2256;48.740;9.106;2024-03-02T15:44:58;13.50;92.10
4487;DHT22;2256;48.740;9.106;2024-03-02T15:47:25;13.30;92.00
4487;DHT22;2256;48.740;9.106;2024-03-02T15:49:52;13.50;92.30
4487;DHT22;2256;48.740;9.106;2024-03-02T15:52:19;13.40;92.00
4487;DHT22;2256;48.740;9.106;2024-03-02T15:54:47;13.10;92.20
4487;DHT22;2256;48.740;9.106;2024-03-02T15:57:15;13.20;92.40
4487;DHT22;2256;48.740;9.106;2024-03-02T15:59:43;13.00;92.40
4487;DHT22;2256;48.740;9.106;2024-03-02T16:02:09;13.00;92.60
4487;DHT22;2256;48.740;9.106;2024-03-02T16:04:36;12.90;92.80
4487;DHT22;2256;48.740;9.106;2024-03-02T16:07:03;12.80;93.10
4487;DHT22;2256;48.740;9.106;2024-03-02T16:09:31;12.70;93.40
4487;DHT22;2256;48.740;9.106;2024-03-02T16:11:57;12.60;93.90
4487;DHT22;2256;48.740;9.106;2024-03-02T16:14:25;12.60;94.30